Destrehan, Louisiana
Current Conditions -  °F | °C
As of 1:53 AM on Saturday 25 Oct 2014 (Local Time) from KMSY Reporting Station
Clear Clear  
Wind Chill: 63°   Ceiling: Unl
Heat Index: 63°   Visibility: 10mi
Dew Point: 52°   Wind: 8mph
Humidity: 67%   Direction: 10°N
Pressure: 30.1"   Gusts: NA
Location:  29.95°N, 90.39°W
Report Text: KMSY 250653Z 01007KT 10SM CLR 17/11 A3010 RMK AO2 SLP195 T01720111
Loading
Personal Weather Stations






























Interactive Weather Map
Tropical Storm Tracking
New forecast layout! Learn more

10-Day Weather Forecast

Advertisements
Track Severe Weather on mobile